Time;durP1;ratioP1;P1;durP2;ratioP2;P2;SDS_P1;SDS_P2;PMS_P1;PMS_P2;Temp;Humidity;BMP_temperature;BMP_pressure;BME280_temperature;BME280_humidity;BME280_pressure;Samples;Min_cycle;Max_cycle;Signal;HPM_P1;HPM_P2
2022/09/13 00:01:29;;;;;;;;;14.33;10.00;;;;;21.84;100.00;100664.03;5058069;28;57025;-72
2022/09/13 00:03:54;;;;;;;;;9.33;8.33;;;;;21.86;100.00;100668.41;5057607;28;60207;-72
2022/09/13 00:06:21;;;;;;;;;9.00;9.00;;;;;21.85;100.00;100666.69;5058821;28;45292;-70
2022/09/13 00:08:47;;;;;;;;;7.00;7.00;;;;;21.85;100.00;100661.28;5058347;28;45178;-71
2022/09/13 00:11:24;;;;;;;;;7.33;7.33;;;;;21.83;100.00;100664.97;5058361;28;45435;-71
2022/09/13 00:13:49;;;;;;;;;6.67;6.67;;;;;21.85;100.00;100671.19;5042352;28;45583;-71
2022/09/13 00:16:17;;;;;;;;;6.33;6.33;;;;;21.83;100.00;100675.72;5058441;28;45562;-71
2022/09/13 00:18:43;;;;;;;;;8.33;7.00;;;;;21.81;100.00;100680.28;5059386;28;46567;-71
2022/09/13 00:21:11;;;;;;;;;7.33;5.67;;;;;21.82;100.00;100685.59;5057602;28;45470;-73
2022/09/13 00:23:36;;;;;;;;;7.33;6.00;;;;;21.79;100.00;100672.28;5058072;28;45378;-71
2022/09/13 00:26:08;;;;;;;;;9.00;7.00;;;;;21.78;100.00;100678.56;5058004;28;45639;-72
2022/09/13 00:28:35;;;;;;;;;6.67;6.33;;;;;21.76;100.00;100668.84;5057884;28;46750;-75
2022/09/13 00:31:02;;;;;;;;;5.00;5.00;;;;;21.73;100.00;100661.75;5058430;28;45905;-71
2022/09/13 00:33:27;;;;;;;;;8.33;6.00;;;;;21.70;100.00;100645.75;5058280;28;45359;-72
2022/09/13 00:35:52;;;;;;;;;7.00;6.00;;;;;21.68;100.00;100650.31;5057972;28;45262;-71
2022/09/13 00:38:18;;;;;;;;;5.00;5.00;;;;;21.67;100.00;100637.78;5056985;28;67876;-72
2022/09/13 00:40:43;;;;;;;;;8.00;8.00;;;;;21.65;100.00;100629.81;5057721;28;59323;-74
2022/09/13 00:43:16;;;;;;;;;6.00;6.00;;;;;21.64;100.00;100620.00;5057401;28;59298;-72
2022/09/13 00:45:42;;;;;;;;;7.00;6.00;;;;;21.63;100.00;100630.81;5058483;28;45304;-72
2022/09/13 00:48:10;;;;;;;;;5.33;5.00;;;;;21.61;100.00;100625.47;5057708;28;45490;-73
2022/09/13 00:50:45;;;;;;;;;7.00;7.00;;;;;21.60;100.00;100630.91;5039079;28;45332;-72
2022/09/13 00:53:32;;;;;;;;;8.67;7.00;;;;;21.58;100.00;100632.78;5039614;28;45364;-72
2022/09/13 00:56:17;;;;;;;;;7.33;7.33;;;;;21.56;100.00;100638.19;5043244;28;45454;-72
2022/09/13 00:58:47;;;;;;;;;6.33;6.33;;;;;21.56;100.00;100640.00;5071770;28;46253;-72
2022/09/13 01:01:13;;;;;;;;;6.67;6.00;;;;;21.53;100.00;100641.03;5061070;28;45359;-72
2022/09/13 01:03:40;;;;;;;;;6.00;6.00;;;;;21.56;100.00;100637.31;5022790;28;45374;-72
2022/09/13 01:06:12;;;;;;;;;7.00;7.00;;;;;21.56;100.00;100631.94;5040495;28;45623;-72
2022/09/13 01:08:40;;;;;;;;;6.67;6.67;;;;;21.56;100.00;100629.25;5031973;28;45695;-72
2022/09/13 01:11:10;;;;;;;;;6.00;6.00;;;;;21.56;100.00;100630.13;5044127;28;45340;-73
2022/09/13 01:13:37;;;;;;;;;6.33;6.33;;;;;21.55;100.00;100616.78;5059267;28;45265;-72
2022/09/13 01:16:03;;;;;;;;;7.00;7.00;;;;;21.55;100.00;100611.41;5070235;28;45639;-72
2022/09/13 01:18:28;;;;;;;;;5.00;5.00;;;;;21.56;100.00;100607.78;5058466;28;62589;-72
2022/09/13 01:21:12;;;;;;;;;8.00;6.00;;;;;21.58;100.00;100600.53;5056552;28;57240;-74
2022/09/13 01:23:37;;;;;;;;;7.00;7.00;;;;;21.59;100.00;100611.22;5057318;28;45413;-72
2022/09/13 01:26:21;;;;;;;;;7.33;6.33;;;;;21.59;100.00;100610.34;5056644;28;45471;-72
2022/09/13 01:28:57;;;;;;;;;8.00;6.00;;;;;21.60;100.00;100607.59;5056076;28;46282;-74
2022/09/13 01:31:27;;;;;;;;;7.00;5.33;;;;;21.61;100.00;100605.78;5056628;28;45442;-73
2022/09/13 01:34:05;;;;;;;;;6.00;6.00;;;;;21.62;100.00;100597.66;5055198;28;45281;-71
2022/09/13 01:37:06;;;;;;;;;6.33;5.00;;;;;21.62;100.00;100600.34;5055507;28;45443;-76
2022/09/13 01:40:03;;;;;;;;;5.67;5.67;;;;;21.62;100.00;100599.47;5043914;28;46716;-72
2022/09/13 01:42:40;;;;;;;;;6.00;6.00;;;;;21.64;100.00;100611.06;5048523;28;45432;-72
2022/09/13 01:45:23;;;;;;;;;4.00;4.00;;;;;21.63;100.00;100604.81;5050195;28;45299;-72
2022/09/13 01:47:59;;;;;;;;;5.67;5.67;;;;;21.65;100.00;100594.00;5035359;28;45364;-75
2022/09/13 01:50:45;;;;;;;;;6.00;6.00;;;;;21.66;100.00;100587.69;5040921;28;46120;-72
2022/09/13 01:53:27;;;;;;;;;5.67;4.00;;;;;21.65;100.00;100589.50;5038883;28;45384;-72
2022/09/13 01:56:11;;;;;;;;;5.67;5.00;;;;;21.66;100.00;100591.25;5038559;28;45459;-73
2022/09/13 01:58:53;;;;;;;;;7.00;5.00;;;;;21.65;100.00;100586.81;5025698;28;45566;-72
2022/09/13 02:01:27;;;;;;;;;6.00;6.00;;;;;21.64;100.00;100581.50;5038824;28;47651;-72
2022/09/13 02:04:09;;;;;;;;;4.00;4.00;;;;;21.64;100.00;100578.81;5056287;28;45544;-74
2022/09/13 02:06:40;;;;;;;;;5.67;4.00;;;;;21.63;100.00;100577.06;5049786;28;45638;-72
2022/09/13 02:09:11;;;;;;;;;4.33;4.33;;;;;21.61;100.00;100576.22;5038630;28;45495;-72
2022/09/13 02:11:40;;;;;;;;;5.00;5.00;;;;;21.58;100.00;100565.63;5031291;28;45263;-72
2022/09/13 02:14:09;;;;;;;;;5.00;5.00;;;;;21.57;100.00;100570.13;5038509;28;45517;-72
2022/09/13 02:17:00;;;;;;;;;5.67;5.67;;;;;21.55;100.00;100571.97;5056290;28;45363;-75
2022/09/13 02:19:32;;;;;;;;;7.00;7.00;;;;;21.52;100.00;100574.78;5049182;28;45546;-72
2022/09/13 02:21:59;;;;;;;;;6.00;4.00;;;;;21.48;100.00;100562.41;5039405;28;46744;-72
2022/09/13 02:24:35;;;;;;;;;7.00;5.33;;;;;21.44;100.00;100564.31;5055369;28;45497;-73
2022/09/13 02:27:08;;;;;;;;;6.00;4.00;;;;;21.41;100.00;100563.56;5038404;28;45370;-72
2022/09/13 02:29:36;;;;;;;;;4.00;4.00;;;;;21.38;100.00;100563.69;5026587;28;45499;-72
2022/09/13 02:32:21;;;;;;;;;4.33;4.33;;;;;21.34;100.00;100557.53;5037951;28;46248;-74
2022/09/13 02:34:53;;;;;;;;;5.00;5.00;;;;;21.29;100.00;100554.13;5038288;28;45325;-73
2022/09/13 02:37:19;;;;;;;;;6.00;5.00;;;;;21.27;100.00;100556.00;5045050;28;45395;-74
2022/09/13 02:39:52;;;;;;;;;6.00;5.00;;;;;21.28;100.00;100556.88;5037365;28;61071;-73
2022/09/13 02:42:27;;;;;;;;;5.33;5.00;;;;;21.27;100.00;100547.94;5046199;28;47419;-76
2022/09/13 02:44:55;;;;;;;;;5.67;3.00;;;;;21.25;100.00;100546.22;5038558;28;45353;-72
2022/09/13 02:47:41;;;;;;;;;6.00;4.33;;;;;21.27;100.00;100547.94;5059915;28;45323;-73
2022/09/13 02:50:15;;;;;;;;;4.33;4.33;;;;;21.27;100.00;100552.44;5059490;28;45348;-72
2022/09/13 02:52:49;;;;;;;;;4.67;4.67;;;;;21.28;100.00;100549.69;5047646;28;46658;-73
2022/09/13 02:55:17;;;;;;;;;4.00;4.00;;;;;21.27;100.00;100542.56;5060093;28;45429;-73
2022/09/13 02:58:20;;;;;;;;;6.00;4.00;;;;;21.28;100.00;100544.31;5062051;28;45291;-72
2022/09/13 03:00:45;;;;;;;;;3.00;3.00;;;;;21.28;100.00;100541.63;5060130;28;45318;-72
2022/09/13 03:03:12;;;;;;;;;8.00;6.33;;;;;21.29;100.00;100535.31;5059693;28;45750;-74
2022/09/13 03:05:39;;;;;;;;;5.67;4.67;;;;;21.29;100.00;100527.25;5041973;28;45378;-72
2022/09/13 03:08:06;;;;;;;;;6.00;5.00;;;;;21.30;100.00;100541.59;5059776;28;45476;-72
2022/09/13 03:11:02;;;;;;;;;6.00;5.00;;;;;21.31;100.00;100535.31;5041427;28;45574;-72
2022/09/13 03:13:42;;;;;;;;;4.00;4.00;;;;;21.31;100.00;100535.31;5050326;28;45837;-72
2022/09/13 03:16:44;;;;;;;;;4.00;3.00;;;;;21.31;100.00;100536.19;5057410;28;45457;-73
2022/09/13 03:19:24;;;;;;;;;4.00;4.00;;;;;21.31;100.00;100530.81;5054287;28;45420;-73
2022/09/13 03:22:10;;;;;;;;;4.00;3.00;;;;;21.27;100.00;100526.47;5058575;28;45365;-72
2022/09/13 03:24:48;;;;;;;;;4.00;4.00;;;;;21.29;100.00;100532.63;5054334;28;46818;-75
2022/09/13 03:27:23;;;;;;;;;4.33;4.33;;;;;21.31;100.00;100538.88;5054793;28;45479;-72
2022/09/13 03:30:03;;;;;;;;;3.33;3.33;;;;;21.31;100.00;100535.31;5058988;28;45380;-72
2022/09/13 03:32:51;;;;;;;;;3.67;2.67;;;;;21.31;100.00;100544.25;5041047;28;45257;-72
2022/09/13 03:35:41;;;;;;;;;5.00;4.00;;;;;21.30;100.00;100546.97;5045048;28;46638;-73
2022/09/13 03:38:11;;;;;;;;;4.00;3.67;;;;;21.35;100.00;100558.41;5039318;28;45373;-72
2022/09/13 03:40:59;;;;;;;;;4.67;3.00;;;;;21.35;100.00;100550.34;5040921;28;45456;-72
2022/09/13 03:43:34;;;;;;;;;2.00;2.00;;;;;21.34;100.00;100541.44;5040702;28;45655;-71
2022/09/13 03:46:04;;;;;;;;;3.67;3.00;;;;;21.35;100.00;100553.03;5058940;28;46707;-74
2022/09/13 03:48:30;;;;;;;;;7.00;4.00;;;;;21.33;100.00;100542.38;5040323;28;45431;-71
2022/09/13 03:50:56;;;;;;;;;7.00;5.00;;;;;21.35;100.00;100553.03;5043123;28;45450;-72
2022/09/13 03:53:26;;;;;;;;;7.00;6.00;;;;;21.35;100.00;100555.72;5039266;28;54699;-73
2022/09/13 03:55:51;;;;;;;;;4.33;4.33;;;;;21.35;100.00;100553.03;5039536;28;46292;-72
2022/09/13 03:58:19;;;;;;;;;6.00;4.00;;;;;21.32;100.00;100551.38;5057719;28;45479;-72
2022/09/13 04:00:45;;;;;;;;;6.33;5.00;;;;;21.32;100.00;100548.69;5058676;28;45407;-73
2022/09/13 04:03:11;;;;;;;;;4.67;4.00;;;;;21.32;100.00;100540.63;5058169;28;45428;-72
2022/09/13 04:05:37;;;;;;;;;4.00;4.00;;;;;21.29;100.00;100538.00;5057606;28;46652;-72
2022/09/13 04:08:06;;;;;;;;;7.00;4.67;;;;;21.30;100.00;100550.53;5057544;28;54977;-73
2022/09/13 04:10:33;;;;;;;;;4.00;4.00;;;;;21.29;100.00;100542.50;5058348;28;45426;-72
2022/09/13 04:13:01;;;;;;;;;5.00;4.00;;;;;21.27;100.00;100544.38;5058575;28;45408;-73
2022/09/13 04:15:27;;;;;;;;;4.33;4.33;;;;;21.27;100.00;100537.19;5058515;28;45872;-74
2022/09/13 04:17:53;;;;;;;;;4.00;4.00;;;;;21.27;100.00;100541.69;5053109;28;45487;-72
2022/09/13 04:20:19;;;;;;;;;4.67;4.33;;;;;21.25;100.00;100530.13;5061928;28;45459;-72
2022/09/13 04:22:50;;;;;;;;;4.00;4.00;;;;;21.24;100.00;100540.00;5057483;28;45227;-73
2022/09/13 04:25:15;;;;;;;;;4.00;4.00;;;;;21.25;100.00;100547.09;5057799;28;46489;-72
2022/09/13 04:27:41;;;;;;;;;3.67;3.67;;;;;21.24;100.00;100550.72;5056989;28;63098;-72
2022/09/13 04:30:07;;;;;;;;;4.00;4.00;;;;;21.23;100.00;100566.91;5058420;28;45296;-71
2022/09/13 04:32:32;;;;;;;;;5.33;4.33;;;;;21.24;100.00;100568.66;5058192;28;45244;-72
2022/09/13 04:34:57;;;;;;;;;4.00;4.00;;;;;21.25;100.00;100568.59;5058191;28;46575;-72
2022/09/13 04:37:23;;;;;;;;;4.67;2.00;;;;;21.23;100.00;100558.84;5056773;28;45577;-73
2022/09/13 04:39:48;;;;;;;;;3.00;3.00;;;;;21.25;100.00;100549.78;5056449;28;45501;-73
2022/09/13 04:42:14;;;;;;;;;4.00;3.00;;;;;21.25;100.00;100549.78;5056763;28;45454;-72
2022/09/13 04:44:39;;;;;;;;;4.00;4.00;;;;;21.25;100.00;100544.41;5045216;28;46405;-72
2022/09/13 04:47:05;;;;;;;;;4.00;4.00;;;;;21.25;100.00;100547.09;5053190;28;45505;-72
2022/09/13 04:49:30;;;;;;;;;3.33;3.33;;;;;21.24;100.00;100547.16;5032660;28;45795;-72
2022/09/13 04:51:56;;;;;;;;;4.00;4.00;;;;;21.26;100.00;100550.69;5050429;28;61597;-76
2022/09/13 04:54:21;;;;;;;;;3.00;3.00;;;;;21.24;100.00;100569.53;5049537;28;45537;-73
2022/09/13 04:56:48;;;;;;;;;5.33;5.33;;;;;21.23;100.00;100574.97;5052794;28;67981;-75
2022/09/13 04:59:13;;;;;;;;;5.00;4.00;;;;;21.22;100.00;100574.09;5043911;28;45511;-73
2022/09/13 05:01:40;;;;;;;;;7.33;5.00;;;;;21.27;100.00;100576.59;5050726;28;45504;-73
2022/09/13 05:04:06;;;;;;;;;7.00;6.00;;;;;21.29;100.00;100583.66;5052860;28;45670;-75
2022/09/13 05:06:32;;;;;;;;;6.00;5.00;;;;;21.30;100.00;100563.97;5053712;28;45658;-73
2022/09/13 05:08:57;;;;;;;;;6.00;6.00;;;;;21.31;100.00;100571.09;5059709;28;46061;-72
2022/09/13 05:11:24;;;;;;;;;6.00;6.00;;;;;21.33;100.00;100561.16;5050828;28;45453;-72
2022/09/13 05:13:56;;;;;;;;;9.00;6.00;;;;;21.33;100.00;100555.78;5053289;28;45542;-72
2022/09/13 05:16:26;;;;;;;;;5.00;5.00;;;;;21.34;100.00;100546.81;5052439;28;45472;-71
2022/09/13 05:18:52;;;;;;;;;7.00;7.00;;;;;21.33;100.00;100560.28;5037249;28;45456;-72
2022/09/13 05:21:18;;;;;;;;;10.00;7.00;;;;;21.29;100.00;100562.19;5052170;28;45539;-73
2022/09/13 05:23:44;;;;;;;;;6.67;6.00;;;;;21.31;100.00;100568.41;5053792;28;47696;-74
2022/09/13 05:26:09;;;;;;;;;8.00;7.00;;;;;21.30;100.00;100565.78;5048862;28;45718;-71
2022/09/13 05:28:36;;;;;;;;;5.67;5.33;;;;;21.30;100.00;100568.47;5046526;28;61266;-71
2022/09/13 05:31:12;;;;;;;;;6.00;6.00;;;;;21.27;100.00;100572.13;5055828;28;45501;-70
2022/09/13 05:33:38;;;;;;;;;8.00;7.00;;;;;21.25;100.00;100571.28;5030416;28;47319;-71
2022/09/13 05:36:06;;;;;;;;;7.00;7.00;;;;;21.22;100.00;100562.47;5055123;28;45494;-71
2022/09/13 05:38:32;;;;;;;;;8.67;7.00;;;;;21.19;100.00;100561.63;5053611;28;45609;-71
2022/09/13 05:40:59;;;;;;;;;8.00;7.00;;;;;21.14;100.00;100565.44;5055779;28;45352;-72
2022/09/13 05:43:27;;;;;;;;;5.67;5.67;;;;;21.13;100.00;100566.38;5053083;28;46627;-73
2022/09/13 05:46:06;;;;;;;;;9.00;7.00;;;;;21.11;100.00;100563.75;5051306;28;45571;-73
2022/09/13 05:48:33;;;;;;;;;8.33;7.00;;;;;21.12;100.00;100567.31;5053945;28;45462;-72
2022/09/13 05:51:05;;;;;;;;;7.00;6.00;;;;;21.12;100.00;100564.63;5051646;28;45518;-72
2022/09/13 05:53:32;;;;;;;;;6.67;6.67;;;;;21.10;100.00;100564.69;5053744;28;47229;-72
2022/09/13 05:55:58;;;;;;;;;9.00;7.00;;;;;21.12;100.00;100561.94;5049863;28;45482;-72
2022/09/13 05:58:23;;;;;;;;;13.67;11.67;;;;;21.11;100.00;100565.56;5050761;28;47704;-72
2022/09/13 06:00:53;;;;;;;;;14.00;11.00;;;;;21.10;100.00;100563.81;5052295;28;62785;-72
2022/09/13 06:03:18;;;;;;;;;9.33;7.67;;;;;21.08;100.00;100565.66;5051938;28;46352;-72
2022/09/13 06:05:44;;;;;;;;;7.67;6.00;;;;;21.05;100.00;100561.28;5054534;28;53760;-71
2022/09/13 06:08:09;;;;;;;;;5.00;5.00;;;;;21.03;100.00;100551.53;5050046;28;58946;-72
2022/09/13 06:10:35;;;;;;;;;5.00;5.00;;;;;21.03;100.00;100546.16;5024796;28;45705;-72
2022/09/13 06:13:00;;;;;;;;;6.00;6.00;;;;;21.04;100.00;100540.75;5054663;28;45745;-72
2022/09/13 06:15:26;;;;;;;;;7.33;7.33;;;;;21.05;100.00;100538.94;5053990;28;45419;-72
2022/09/13 06:17:51;;;;;;;;;9.00;7.00;;;;;21.08;100.00;100538.81;5050430;28;45926;-74
2022/09/13 06:20:16;;;;;;;;;5.67;5.67;;;;;21.08;100.00;100525.38;5052870;28;58336;-73
2022/09/13 06:22:42;;;;;;;;;7.67;6.00;;;;;21.10;100.00;100521.72;5045622;28;67162;-71
2022/09/13 06:25:08;;;;;;;;;6.33;5.00;;;;;21.17;100.00;100519.69;5051944;28;67058;-72
2022/09/13 06:27:33;;;;;;;;;7.00;7.00;;;;;21.17;100.00;100517.00;5048991;28;45533;-72
2022/09/13 06:29:59;;;;;;;;;10.33;7.33;;;;;21.22;100.00;100516.81;5054507;28;45627;-72
2022/09/13 06:32:24;;;;;;;;;6.67;6.00;;;;;21.27;100.00;100529.16;5054383;28;45645;-72
2022/09/13 06:34:49;;;;;;;;;8.67;8.00;;;;;21.33;100.00;100523.56;5053638;28;62782;-74
2022/09/13 06:37:15;;;;;;;;;11.00;8.00;;;;;21.36;100.00;100510.03;5055073;28;45501;-72
2022/09/13 06:39:40;;;;;;;;;8.67;7.00;;;;;21.44;100.00;100505.22;5053454;28;45301;-72
2022/09/13 06:42:06;;;;;;;;;11.33;10.33;;;;;21.51;100.00;100499.59;5052437;28;71478;-71
2022/09/13 06:44:31;;;;;;;;;8.33;8.33;;;;;21.55;100.00;100487.81;5053525;28;45489;-71
2022/09/13 06:46:56;;;;;;;;;8.00;8.00;;;;;21.60;100.00;100486.69;5047625;28;45470;-71
2022/09/13 06:49:22;;;;;;;;;9.67;7.67;;;;;21.64;100.00;100474.00;5053459;28;57108;-71
2022/09/13 06:51:47;;;;;;;;;12.67;8.67;;;;;21.73;100.00;100481.69;5050632;28;45662;-73
2022/09/13 06:54:12;;;;;;;;;8.00;8.00;;;;;21.79;100.00;100478.78;5051367;28;45329;-73
2022/09/13 06:56:38;;;;;;;;;8.00;8.00;;;;;21.85;100.00;100467.75;5049518;28;57070;-71
2022/09/13 06:59:07;;;;;;;;;7.00;7.00;;;;;21.91;100.00;100463.94;5052944;28;45527;-71
2022/09/13 07:01:35;;;;;;;;;5.00;5.00;;;;;21.95;100.00;100454.81;5051971;28;47125;-73
2022/09/13 07:04:01;;;;;;;;;9.67;6.67;;;;;22.00;100.00;100447.44;5050722;28;45438;-71
2022/09/13 07:06:28;;;;;;;;;5.33;4.33;;;;;22.04;100.00;100438.28;5052533;28;45359;-71
2022/09/13 07:08:55;;;;;;;;;6.00;6.00;;;;;22.10;100.00;100443.41;5035668;28;45576;-72
2022/09/13 07:11:23;;;;;;;;;9.00;5.67;;;;;22.13;100.00;100437.91;5054341;28;46799;-74
2022/09/13 07:13:49;;;;;;;;;4.67;4.67;;;;;22.15;100.00;100429.78;5052575;28;45396;-72
2022/09/13 07:16:14;;;;;;;;;20.33;15.67;;;;;22.14;100.00;100438.78;5046203;28;45400;-72
2022/09/13 07:18:40;;;;;;;;;6.00;6.00;;;;;22.17;100.00;100438.69;5051242;28;45388;-73
2022/09/13 07:21:09;;;;;;;;;4.00;4.00;;;;;22.17;100.00;100436.84;5036086;28;47193;-74
2022/09/13 07:23:37;;;;;;;;;6.00;6.00;;;;;22.18;100.00;100426.97;5053254;28;45471;-75
2022/09/13 07:26:05;;;;;;;;;8.33;7.00;;;;;22.23;100.00;100441.09;5053884;28;45422;-71
2022/09/13 07:28:51;;;;;;;;;9.00;9.00;;;;;22.26;100.00;100432.88;5035468;28;45249;-71
2022/09/13 07:31:25;;;;;;;;;16.33;11.33;;;;;22.30;100.00;100441.69;5057755;28;46673;-72
2022/09/13 07:33:56;;;;;;;;;13.33;13.33;;;;;22.31;100.00;100438.94;5056351;28;45628;-72
2022/09/13 07:36:23;;;;;;;;;12.33;11.33;;;;;22.38;100.00;100442.25;5057379;28;45514;-72
2022/09/13 07:38:48;;;;;;;;;10.00;9.00;;;;;22.41;100.00;100437.59;5056538;28;45567;-74
2022/09/13 07:41:16;;;;;;;;;10.67;9.33;;;;;22.49;100.00;100440.81;5057432;28;45771;-72
2022/09/13 07:43:41;;;;;;;;;11.67;11.67;;;;;22.56;100.00;100446.78;5056993;28;45458;-72
2022/09/13 07:46:12;;;;;;;;;10.00;10.00;;;;;22.62;100.00;100451.03;5056228;28;45614;-72
2022/09/13 07:48:39;;;;;;;;;10.33;9.00;;;;;22.69;100.00;100452.50;5056527;28;45768;-72
2022/09/13 07:51:09;;;;;;;;;13.00;10.00;;;;;22.78;100.00;100457.47;5057314;28;46377;-73
2022/09/13 07:53:35;;;;;;;;;7.33;7.33;;;;;22.84;100.00;100449.09;5056027;28;45453;-72
2022/09/13 07:56:15;;;;;;;;;9.33;8.00;;;;;22.90;100.00;100451.53;5057508;28;45548;-72
2022/09/13 07:58:41;;;;;;;;;5.00;5.00;;;;;22.98;100.00;100444.00;5056947;28;45183;-73
2022/09/13 08:01:13;;;;;;;;;5.00;5.00;;;;;23.03;100.00;100434.84;5039663;28;46309;-72
2022/09/13 08:03:39;;;;;;;;;6.33;6.33;;;;;23.10;100.00;100438.97;5056370;28;45497;-72
2022/09/13 08:06:05;;;;;;;;;6.67;6.33;;;;;23.17;100.00;100443.13;5056920;28;45307;-73
2022/09/13 08:08:31;;;;;;;;;5.00;5.00;;;;;23.22;100.00;100439.28;5039024;28;45519;-73
2022/09/13 08:10:58;;;;;;;;;7.33;7.00;;;;;23.29;100.00;100441.69;5056080;28;46483;-72
2022/09/13 08:13:23;;;;;;;;;6.67;6.33;;;;;23.32;100.00;100444.22;5057111;28;46653;-72
2022/09/13 08:15:49;;;;;;;;;9.67;7.00;;;;;23.37;100.00;100437.66;5057271;28;45440;-72
2022/09/13 08:18:15;;;;;;;;;7.00;5.67;;;;;23.39;100.00;100438.47;5056811;28;45423;-72
2022/09/13 08:20:41;;;;;;;;;11.00;6.00;;;;;23.45;100.00;100440.00;5056554;28;46029;-72
2022/09/13 08:23:08;;;;;;;;;8.00;6.00;;;;;23.47;100.00;100435.41;5056434;28;58630;-74
2022/09/13 08:25:34;;;;;;;;;5.67;5.67;;;;;23.48;100.00;100421.84;5038062;28;46599;-76
2022/09/13 08:28:17;;;;;;;;;6.33;6.00;;;;;23.55;100.00;100435.03;5057225;28;45598;-72
2022/09/13 08:30:43;;;;;;;;;5.00;5.00;;;;;23.58;100.00;100422.28;5055191;28;45941;-72
2022/09/13 08:33:10;;;;;;;;;6.67;5.33;;;;;23.64;100.00;100426.50;5056806;28;45474;-72
2022/09/13 08:35:36;;;;;;;;;6.33;6.33;;;;;23.65;100.00;100420.16;5056661;28;45368;-72
2022/09/13 08:38:02;;;;;;;;;7.67;7.33;;;;;23.71;100.00;100425.28;5056215;28;45334;-72
2022/09/13 08:40:31;;;;;;;;;7.00;6.00;;;;;23.68;100.00;100420.91;5055970;28;45499;-73
2022/09/13 08:43:22;;;;;;;;;8.00;8.00;;;;;23.73;100.00;100432.34;5054942;28;45863;-72
2022/09/13 08:46:00;;;;;;;;;7.67;6.00;;;;;23.75;100.00;100438.50;5045701;28;45230;-72
2022/09/13 08:48:38;;;;;;;;;7.00;7.00;;;;;23.79;100.00;100450.03;5055526;28;46795;-72
2022/09/13 08:51:22;;;;;;;;;9.00;6.67;;;;;23.82;100.00;100447.19;5031107;28;47086;-72
2022/09/13 08:53:49;;;;;;;;;7.00;5.00;;;;;23.86;100.00;100458.66;5031694;28;45332;-73
2022/09/13 08:56:40;;;;;;;;;8.00;6.33;;;;;23.91;100.00;100473.66;5029520;28;53472;-73
2022/09/13 08:59:22;;;;;;;;;5.00;5.00;;;;;23.95;100.00;100461.78;5045501;28;45490;-74
2022/09/13 09:02:15;;;;;;;;;8.33;6.00;;;;;23.99;100.00;100460.69;5045754;28;46504;-72
2022/09/13 09:04:45;;;;;;;;;5.00;5.00;;;;;24.10;100.00;100473.63;5048700;28;45278;-71
2022/09/13 09:07:27;;;;;;;;;5.67;5.33;;;;;24.12;100.00;100474.41;5047819;28;45305;-72
2022/09/13 09:10:03;;;;;;;;;6.00;6.00;;;;;24.17;100.00;100472.34;5039925;28;46288;-72
2022/09/13 09:12:33;;;;;;;;;5.33;5.33;;;;;24.18;100.00;100476.81;5055306;28;46396;-72
2022/09/13 09:15:12;;;;;;;;;7.00;5.00;;;;;24.19;100.00;100477.69;5036863;28;45719;-72
2022/09/13 09:18:03;;;;;;;;;5.67;4.00;;;;;24.18;100.00;100487.63;5032135;28;45428;-71
2022/09/13 09:20:32;;;;;;;;;7.33;5.00;;;;;24.15;100.00;100487.75;5051377;28;45692;-73
2022/09/13 09:23:01;;;;;;;;;4.00;4.00;;;;;24.16;100.00;100499.41;5043352;28;46955;-73
2022/09/13 09:25:27;;;;;;;;;5.00;4.00;;;;;24.18;100.00;100503.81;5033205;28;45722;-73
2022/09/13 09:27:53;;;;;;;;;6.33;4.33;;;;;24.22;100.00;100491.00;5051217;28;60216;-71
2022/09/13 09:30:19;;;;;;;;;4.00;4.00;;;;;24.26;100.00;100471.03;5063934;28;45570;-72
2022/09/13 09:33:03;;;;;;;;;7.00;5.00;;;;;24.35;100.00;100467.91;5034778;28;46449;-72
2022/09/13 09:35:32;;;;;;;;;7.00;5.33;;;;;24.42;100.00;100477.41;5052897;28;45513;-72
2022/09/13 09:38:30;;;;;;;;;5.00;5.00;;;;;24.53;100.00;100482.25;5052718;28;45562;-71
2022/09/13 09:40:55;;;;;;;;;6.33;5.00;;;;;24.60;100.00;100485.47;5036941;28;45410;-72
2022/09/13 09:43:29;;;;;;;;;3.67;3.67;;;;;24.66;100.00;100493.25;5053497;28;45557;-72
2022/09/13 09:45:56;;;;;;;;;4.67;4.67;;;;;24.72;100.00;100498.34;5036798;28;45468;-73
2022/09/13 09:48:25;;;;;;;;;5.00;5.00;;;;;24.74;100.00;100497.31;5053789;28;45422;-72
2022/09/13 09:50:53;;;;;;;;;5.67;4.33;;;;;24.71;100.00;100507.38;5034509;28;45365;-72
2022/09/13 09:53:34;;;;;;;;;4.67;4.00;;;;;24.70;100.00;100505.66;5035408;28;46509;-72
2022/09/13 09:56:20;;;;;;;;;7.00;4.33;;;;;24.75;100.00;100498.19;5049338;28;45490;-72
2022/09/13 09:58:46;;;;;;;;;5.33;3.67;;;;;24.79;100.00;100502.47;5053592;28;45535;-71
2022/09/13 10:01:18;;;;;;;;;5.67;5.00;;;;;24.84;100.00;100503.09;5043997;28;45336;-74
2022/09/13 10:03:51;;;;;;;;;6.00;5.00;;;;;24.90;100.00;100502.75;5049412;28;47621;-72
2022/09/13 10:06:22;;;;;;;;;7.00;4.00;;;;;24.96;100.00;100505.13;5049239;28;45379;-72
2022/09/13 10:09:00;;;;;;;;;3.67;3.00;;;;;24.98;100.00;100503.25;5036479;28;45558;-72
2022/09/13 10:11:48;;;;;;;;;7.00;5.33;;;;;25.06;100.00;100513.66;5037181;28;45420;-72
2022/09/13 10:14:36;;;;;;;;;5.00;5.00;;;;;25.12;100.00;100504.34;5050691;28;46960;-73
2022/09/13 10:17:07;;;;;;;;;7.00;4.00;;;;;25.20;100.00;100507.50;5182107;22;45546;-72
2022/09/13 10:19:33;;;;;;;;;4.00;4.00;;;;;25.31;100.00;100505.09;5072202;27;45572;-72
2022/09/13 10:22:10;;;;;;;;;4.00;4.00;;;;;25.39;100.00;100502.81;5090962;27;45554;-72
2022/09/13 10:24:35;;;;;;;;;4.33;4.33;;;;;25.47;100.00;100505.97;5095301;27;47393;-72
2022/09/13 10:27:02;;;;;;;;;3.33;3.33;;;;;25.56;100.00;100504.56;5091734;27;65315;-72
2022/09/13 10:29:28;;;;;;;;;4.67;4.67;;;;;25.63;100.00;100510.53;5070646;27;45470;-73
2022/09/13 10:31:56;;;;;;;;;6.67;6.67;;;;;25.63;100.00;100511.38;5059996;28;45564;-72
2022/09/13 10:34:25;;;;;;;;;5.00;5.00;;;;;25.68;100.00;100503.03;5073255;27;46463;-73
2022/09/13 10:36:59;;;;;;;;;6.67;5.33;;;;;25.69;100.00;100511.03;5091134;27;45575;-73
2022/09/13 10:39:27;;;;;;;;;5.67;5.67;;;;;25.69;100.00;100496.66;5093305;27;45705;-73
2022/09/13 10:41:57;;;;;;;;;4.67;4.00;;;;;25.75;100.00;100494.50;5095438;27;45597;-74
2022/09/13 10:44:28;;;;;;;;;8.33;7.33;;;;;25.80;100.00;100491.53;5095544;27;46251;-73
2022/09/13 10:46:54;;;;;;;;;8.00;7.00;;;;;25.83;100.00;100499.44;5094713;27;45624;-74
2022/09/13 10:49:36;;;;;;;;;6.00;4.33;;;;;25.79;100.00;100492.50;5091097;27;62349;-73
2022/09/13 10:52:21;;;;;;;;;5.67;5.67;;;;;25.74;100.00;100489.16;5092716;27;45588;-73
2022/09/13 10:54:47;;;;;;;;;6.67;6.00;;;;;25.66;100.00;100484.16;5094274;27;45468;-74
2022/09/13 10:57:42;;;;;;;;;7.33;6.00;;;;;25.66;100.00;100486.84;5094018;27;45358;-73
2022/09/13 11:00:11;;;;;;;;;6.00;4.00;;;;;25.66;100.00;100486.00;5075705;27;45501;-72
2022/09/13 11:03:05;;;;;;;;;5.00;5.00;;;;;25.73;100.00;100490.97;5073336;27;45593;-72
2022/09/13 11:05:48;;;;;;;;;6.33;4.67;;;;;25.78;100.00;100478.09;5077157;27;45800;-73
2022/09/13 11:08:42;;;;;;;;;4.00;4.00;;;;;25.86;100.00;100478.50;5097487;27;45169;-73
2022/09/13 11:11:32;;;;;;;;;5.67;5.00;;;;;25.99;100.00;100478.66;5096603;27;45600;-72
2022/09/13 11:14:01;;;;;;;;;6.00;4.33;;;;;26.08;100.00;100472.72;5093635;27;45481;-73
2022/09/13 11:16:38;;;;;;;;;5.33;4.67;;;;;26.17;100.00;100487.53;5076895;27;47159;-73
2022/09/13 11:19:09;;;;;;;;;5.00;5.00;;;;;26.21;100.00;100482.81;5096371;27;45556;-72
2022/09/13 11:21:51;;;;;;;;;7.00;5.00;;;;;26.20;100.00;100483.75;5091868;27;45462;-73
2022/09/13 11:24:23;;;;;;;;;4.67;4.67;;;;;26.15;100.00;100478.63;5073401;27;46326;-72
2022/09/13 11:27:00;;;;;;;;;4.67;4.67;;;;;26.09;100.00;100487.97;5098080;27;45482;-73
2022/09/13 11:30:00;;;;;;;;;5.00;5.00;;;;;26.02;100.00;100475.78;5078353;27;45523;-73
2022/09/13 11:32:52;;;;;;;;;3.33;3.33;;;;;25.95;100.00;100477.09;5097978;27;45326;-73
2022/09/13 11:35:23;;;;;;;;;4.67;4.00;;;;;25.90;100.00;100467.53;5094698;27;46707;-73
2022/09/13 11:37:57;;;;;;;;;8.67;5.00;;;;;25.89;100.00;100461.25;5097969;27;45945;-73